sensor_id;sensor_type;location;lat;lon;timestamp;pressure;altitude;pressure_sealevel;temperature;humidity
54816;BME280;40715;55.752;37.884;2023-03-11T00:02:04;98474.63;;;29.92;20.52
54816;BME280;40715;55.752;37.884;2023-03-11T00:04:31;98488.00;;;29.94;20.16
54816;BME280;40715;55.752;37.884;2023-03-11T00:07:07;98471.25;;;29.90;20.44
54816;BME280;40715;55.752;37.884;2023-03-11T00:09:36;98484.66;;;29.92;20.27
54816;BME280;40715;55.752;37.884;2023-03-11T00:12:11;98471.06;;;29.92;20.30
54816;BME280;40715;55.752;37.884;2023-03-11T00:14:54;98481.56;;;29.95;20.41
54816;BME280;40715;55.752;37.884;2023-03-11T00:17:24;98457.38;;;29.85;20.00
54816;BME280;40715;55.752;37.884;2023-03-11T00:20:06;98474.44;;;29.94;20.15
54816;BME280;40715;55.752;37.884;2023-03-11T00:23:05;98471.16;;;29.99;20.07
54816;BME280;40715;55.752;37.884;2023-03-11T00:26:14;98470.50;;;29.97;20.36
54816;BME280;40715;55.752;37.884;2023-03-11T00:28:44;98467.50;;;29.91;20.07
54816;BME280;40715;55.752;37.884;2023-03-11T00:31:36;98468.72;;;30.04;20.28
54816;BME280;40715;55.752;37.884;2023-03-11T00:34:03;98473.41;;;29.95;20.21
54816;BME280;40715;55.752;37.884;2023-03-11T00:36:39;98463.75;;;29.92;20.36
54816;BME280;40715;55.752;37.884;2023-03-11T00:39:06;98463.56;;;29.94;20.03
54816;BME280;40715;55.752;37.884;2023-03-11T00:41:33;98463.50;;;29.87;20.34
54816;BME280;40715;55.752;37.884;2023-03-11T00:44:49;98477.44;;;29.99;20.11
54816;BME280;40715;55.752;37.884;2023-03-11T00:47:19;98463.94;;;29.91;20.02
54816;BME280;40715;55.752;37.884;2023-03-11T00:49:47;98463.66;;;29.86;20.00
54816;BME280;40715;55.752;37.884;2023-03-11T00:52:14;98466.22;;;29.87;20.14
54816;BME280;40715;55.752;37.884;2023-03-11T00:54:41;98462.44;;;29.88;20.25
54816;BME280;40715;55.752;37.884;2023-03-11T00:57:28;98464.44;;;29.94;19.96
54816;BME280;40715;55.752;37.884;2023-03-11T00:59:55;98466.00;;;29.89;20.00
54816;BME280;40715;55.752;37.884;2023-03-11T01:02:44;98472.44;;;30.03;20.06
54816;BME280;40715;55.752;37.884;2023-03-11T01:05:12;98467.97;;;29.95;19.94
54816;BME280;40715;55.752;37.884;2023-03-11T01:07:41;98471.25;;;29.90;19.94
54816;BME280;40715;55.752;37.884;2023-03-11T01:10:09;98468.06;;;29.87;19.76
54816;BME280;40715;55.752;37.884;2023-03-11T01:12:36;98475.19;;;29.88;20.18
54816;BME280;40715;55.752;37.884;2023-03-11T01:15:03;98483.78;;;29.91;20.15
54816;BME280;40715;55.752;37.884;2023-03-11T01:17:50;98488.38;;;29.91;20.11
54816;BME280;40715;55.752;37.884;2023-03-11T01:20:17;98479.41;;;29.90;20.20
54816;BME280;40715;55.752;37.884;2023-03-11T01:22:44;98476.31;;;29.93;20.17
54816;BME280;40715;55.752;37.884;2023-03-11T01:25:18;98474.63;;;29.92;19.98
54816;BME280;40715;55.752;37.884;2023-03-11T01:28:05;98488.88;;;29.94;19.96
54816;BME280;40715;55.752;37.884;2023-03-11T01:30:52;98474.63;;;29.92;20.16
54816;BME280;40715;55.752;37.884;2023-03-11T01:33:19;98476.50;;;29.92;19.85
54816;BME280;40715;55.752;37.884;2023-03-11T01:35:47;98470.22;;;29.91;20.02
54816;BME280;40715;55.752;37.884;2023-03-11T01:38:57;98471.25;;;30.05;20.05
54816;BME280;40715;55.752;37.884;2023-03-11T01:41:24;98470.50;;;29.97;19.84
54816;BME280;40715;55.752;37.884;2023-03-11T01:44:06;98474.91;;;29.98;20.05
54816;BME280;40715;55.752;37.884;2023-03-11T01:49:39;98463.66;;;30.01;19.85
54816;BME280;40715;55.752;37.884;2023-03-11T01:52:46;98470.22;;;29.91;19.93
54816;BME280;40715;55.752;37.884;2023-03-11T01:55:25;98460.44;;;29.82;20.22
54816;BME280;40715;55.752;37.884;2023-03-11T01:58:33;98470.13;;;30.00;20.07
54816;BME280;40715;55.752;37.884;2023-03-11T02:01:30;98476.88;;;29.89;20.27
54816;BME280;40715;55.752;37.884;2023-03-11T02:04:18;98467.59;;;29.98;19.86
54816;BME280;40715;55.752;37.884;2023-03-11T02:06:46;98474.03;;;29.82;20.24
54816;BME280;40715;55.752;37.884;2023-03-11T02:09:13;98456.50;;;29.70;20.03
54816;BME280;40715;55.752;37.884;2023-03-11T02:11:40;98472.53;;;29.79;20.17
54816;BME280;40715;55.752;37.884;2023-03-11T02:14:07;98471.50;;;29.81;20.11
54816;BME280;40715;55.752;37.884;2023-03-11T02:16:48;98464.50;;;29.86;20.14
54816;BME280;40715;55.752;37.884;2023-03-11T02:22:23;98473.03;;;29.83;20.05
54816;BME280;40715;55.752;37.884;2023-03-11T02:27:56;98476.50;;;29.92;20.11
54816;BME280;40715;55.752;37.884;2023-03-11T02:31:02;98469.00;;;29.94;20.09
54816;BME280;40715;55.752;37.884;2023-03-11T02:34:03;98457.25;;;29.78;20.16
54816;BME280;40715;55.752;37.884;2023-03-11T02:36:50;98472.72;;;29.78;19.95
54816;BME280;40715;55.752;37.884;2023-03-11T02:39:51;98449.53;;;29.90;19.64
54816;BME280;40715;55.752;37.884;2023-03-11T02:42:32;98458.91;;;29.88;19.92
54816;BME280;40715;55.752;37.884;2023-03-11T02:45:19;98464.63;;;29.93;19.88
54816;BME280;40715;55.752;37.884;2023-03-11T02:48:20;98460.28;;;29.84;19.98
54816;BME280;40715;55.752;37.884;2023-03-11T02:51:47;98471.63;;;30.02;19.81
54816;BME280;40715;55.752;37.884;2023-03-11T02:54:22;98469.00;;;29.94;19.77
54816;BME280;40715;55.752;37.884;2023-03-11T02:56:49;98468.06;;;29.87;19.72
54816;BME280;40715;55.752;37.884;2023-03-11T02:59:36;98471.91;;;29.92;20.52
54816;BME280;40715;55.752;37.884;2023-03-11T03:02:11;98472.75;;;29.93;21.28
54816;BME280;40715;55.752;37.884;2023-03-11T03:04:38;98471.25;;;29.90;21.78
54816;BME280;40715;55.752;37.884;2023-03-11T03:07:22;98477.69;;;30.04;22.04
54816;BME280;40715;55.752;37.884;2023-03-11T03:10:30;98462.34;;;29.97;22.57
54816;BME280;40715;55.752;37.884;2023-03-11T03:13:36;98475.56;;;30.00;22.68
54816;BME280;40715;55.752;37.884;2023-03-11T03:16:57;98464.03;;;29.98;22.70
54816;BME280;40715;55.752;37.884;2023-03-11T03:19:24;98461.34;;;29.98;23.12
54816;BME280;40715;55.752;37.884;2023-03-11T03:21:51;98453.38;;;29.96;23.09
54816;BME280;40715;55.752;37.884;2023-03-11T03:24:32;98467.03;;;30.03;23.10
54816;BME280;40715;55.752;37.884;2023-03-11T03:26:58;98475.34;;;30.01;23.09
54816;BME280;40715;55.752;37.884;2023-03-11T03:29:29;98480.97;;;30.00;22.92
54816;BME280;40715;55.752;37.884;2023-03-11T03:31:56;98474.34;;;30.02;22.97
54816;BME280;40715;55.752;37.884;2023-03-11T03:34:23;98478.25;;;30.00;23.13
54816;BME280;40715;55.752;37.884;2023-03-11T03:36:53;98474.97;;;30.04;22.90
54816;BME280;40715;55.752;37.884;2023-03-11T03:39:37;98479.56;;;30.04;23.07
54816;BME280;40715;55.752;37.884;2023-03-11T03:42:14;98480.06;;;30.07;23.04
54816;BME280;40715;55.752;37.884;2023-03-11T03:44:40;98476.47;;;30.07;22.95
54816;BME280;40715;55.752;37.884;2023-03-11T03:47:09;98459.75;;;30.03;22.69
54816;BME280;40715;55.752;37.884;2023-03-11T03:49:50;98466.28;;;30.09;22.61
54816;BME280;40715;55.752;37.884;2023-03-11T03:52:22;98469.84;;;30.09;22.60
54816;BME280;40715;55.752;37.884;2023-03-11T03:54:48;98464.41;;;30.09;22.81
54816;BME280;40715;55.752;37.884;2023-03-11T03:57:46;98461.69;;;30.24;22.80
54816;BME280;40715;55.752;37.884;2023-03-11T04:00:13;98463.19;;;30.12;22.58
54816;BME280;40715;55.752;37.884;2023-03-11T04:03:19;98459.81;;;30.10;22.41
54816;BME280;40715;55.752;37.884;2023-03-11T04:06:19;98461.78;;;30.16;22.19
54816;BME280;40715;55.752;37.884;2023-03-11T04:09:11;98460.00;;;30.08;22.60
54816;BME280;40715;55.752;37.884;2023-03-11T04:11:38;98453.44;;;30.03;22.41
54816;BME280;40715;55.752;37.884;2023-03-11T04:14:08;98451.97;;;30.00;22.17
54816;BME280;40715;55.752;37.884;2023-03-11T04:16:35;98455.53;;;30.01;22.23
54816;BME280;40715;55.752;37.884;2023-03-11T04:19:05;98445.50;;;30.01;22.50
54816;BME280;40715;55.752;37.884;2023-03-11T04:21:52;98449.31;;;30.07;22.30
54816;BME280;40715;55.752;37.884;2023-03-11T04:24:27;98448.88;;;30.03;22.15
54816;BME280;40715;55.752;37.884;2023-03-11T04:26:54;98437.34;;;30.01;22.08
54816;BME280;40715;55.752;37.884;2023-03-11T04:29:25;98433.16;;;29.99;22.25
54816;BME280;40715;55.752;37.884;2023-03-11T04:31:53;98441.13;;;30.00;22.33
54816;BME280;40715;55.752;37.884;2023-03-11T04:34:30;98431.91;;;30.68;21.73
54816;BME280;40715;55.752;37.884;2023-03-11T04:37:22;98432.34;;;30.20;22.19
54816;BME280;40715;55.752;37.884;2023-03-11T04:40:14;98436.97;;;30.04;22.01
54816;BME280;40715;55.752;37.884;2023-03-11T04:42:41;98421.03;;;30.01;22.10
54816;BME280;40715;55.752;37.884;2023-03-11T04:45:09;98419.19;;;30.02;21.98
54816;BME280;40715;55.752;37.884;2023-03-11T04:47:56;98413.09;;;30.00;22.02
54816;BME280;40715;55.752;37.884;2023-03-11T04:50:26;98425.06;;;30.05;21.97
54816;BME280;40715;55.752;37.884;2023-03-11T04:52:56;98419.00;;;30.03;21.85
54816;BME280;40715;55.752;37.884;2023-03-11T04:55:26;98413.09;;;30.00;21.77
54816;BME280;40715;55.752;37.884;2023-03-11T04:58:09;98404.13;;;29.99;21.82
54816;BME280;40715;55.752;37.884;2023-03-11T05:00:38;98426.22;;;29.96;21.67
54816;BME280;40715;55.752;37.884;2023-03-11T05:03:15;98406.72;;;29.92;21.78
54816;BME280;40715;55.752;37.884;2023-03-11T05:05:43;98423.03;;;29.92;21.92
54816;BME280;40715;55.752;37.884;2023-03-11T05:08:10;98419.28;;;29.93;21.73
54816;BME280;40715;55.752;37.884;2023-03-11T05:10:47;98416.00;;;29.98;21.69
54816;BME280;40715;55.752;37.884;2023-03-11T05:13:34;98415.81;;;30.00;21.70
54816;BME280;40715;55.752;37.884;2023-03-11T05:16:00;98410.75;;;29.97;21.86
54816;BME280;40715;55.752;37.884;2023-03-11T05:18:27;98387.28;;;29.89;21.69
54816;BME280;40715;55.752;37.884;2023-03-11T05:20:58;98408.72;;;29.99;21.80
54816;BME280;40715;55.752;37.884;2023-03-11T05:23:25;98410.56;;;29.98;21.82
54816;BME280;40715;55.752;37.884;2023-03-11T05:25:52;98400.47;;;29.92;21.78
54816;BME280;40715;55.752;37.884;2023-03-11T05:28:19;98397.94;;;29.90;21.58
54816;BME280;40715;55.752;37.884;2023-03-11T05:30:46;98398.22;;;29.95;21.68
54816;BME280;40715;55.752;37.884;2023-03-11T05:33:13;98404.50;;;29.96;21.51
54816;BME280;40715;55.752;37.884;2023-03-11T05:35:40;98398.88;;;29.98;21.52
54816;BME280;40715;55.752;37.884;2023-03-11T05:38:08;98403.28;;;29.99;21.70
54816;BME280;40715;55.752;37.884;2023-03-11T05:40:35;98397.19;;;29.97;21.74
54816;BME280;40715;55.752;37.884;2023-03-11T05:43:02;98391.47;;;29.91;21.61
54816;BME280;40715;55.752;37.884;2023-03-11T05:45:29;98392.59;;;29.97;21.40
54816;BME280;40715;55.752;37.884;2023-03-11T05:47:56;98402.53;;;30.05;21.38
54816;BME280;40715;55.752;37.884;2023-03-11T05:50:23;98398.00;;;30.12;21.67
54816;BME280;40715;55.752;37.884;2023-03-11T05:56:03;98391.63;;;30.20;21.63
54816;BME280;40715;55.752;37.884;2023-03-11T05:59:12;98372.91;;;30.10;21.57
54816;BME280;40715;55.752;37.884;2023-03-11T06:01:45;98356.75;;;30.02;21.50
54816;BME280;40715;55.752;37.884;2023-03-11T06:04:16;98381.13;;;30.17;21.53
54816;BME280;40715;55.752;37.884;2023-03-11T06:06:46;98366.00;;;30.07;21.49
54816;BME280;40715;55.752;37.884;2023-03-11T06:09:25;98366.63;;;30.09;21.47
54816;BME280;40715;55.752;37.884;2023-03-11T06:11:58;98367.75;;;30.15;21.41
54816;BME280;40715;55.752;37.884;2023-03-11T06:14:26;98370.56;;;30.22;21.34
54816;BME280;40715;55.752;37.884;2023-03-11T06:17:25;98344.69;;;30.26;21.30
54816;BME280;40715;55.752;37.884;2023-03-11T06:20:06;98387.75;;;30.44;21.18
54816;BME280;40715;55.752;37.884;2023-03-11T06:22:33;98387.94;;;30.42;21.40
54816;BME280;40715;55.752;37.884;2023-03-11T06:24:59;98390.47;;;30.44;21.18
54816;BME280;40715;55.752;37.884;2023-03-11T06:27:28;98390.66;;;30.42;20.82
54816;BME280;40715;55.752;37.884;2023-03-11T06:29:55;98400.84;;;30.40;20.97
54816;BME280;40715;55.752;37.884;2023-03-11T06:32:22;98390.72;;;30.34;21.03
54816;BME280;40715;55.752;37.884;2023-03-11T06:34:50;98397.84;;;30.35;21.18
54816;BME280;40715;55.752;37.884;2023-03-11T06:37:17;98400.84;;;30.40;21.14
54816;BME280;40715;55.752;37.884;2023-03-11T06:39:44;98393.66;;;30.48;20.98
54816;BME280;40715;55.752;37.884;2023-03-11T06:42:11;98389.72;;;30.50;21.11
54816;BME280;40715;55.752;37.884;2023-03-11T06:44:38;98385.72;;;30.53;20.63
54816;BME280;40715;55.752;37.884;2023-03-11T06:47:05;98376.94;;;30.51;20.99
54816;BME280;40715;55.752;37.884;2023-03-11T06:49:33;98374.63;;;30.48;20.85
54816;BME280;40715;55.752;37.884;2023-03-11T06:52:00;98378.84;;;30.50;20.68
54816;BME280;40715;55.752;37.884;2023-03-11T06:54:27;98370.88;;;30.49;21.02
54816;BME280;40715;55.752;37.884;2023-03-11T06:56:54;98378.44;;;30.53;20.59
54816;BME280;40715;55.752;37.884;2023-03-11T06:59:21;98378.63;;;30.52;20.66
54816;BME280;40715;55.752;37.884;2023-03-11T07:01:49;98373.19;;;30.52;20.40
54816;BME280;40715;55.752;37.884;2023-03-11T07:04:16;98370.50;;;30.52;20.65
54816;BME280;40715;55.752;37.884;2023-03-11T07:06:43;98370.69;;;30.50;20.46
54816;BME280;40715;55.752;37.884;2023-03-11T07:09:11;98378.84;;;30.50;20.58
54816;BME280;40715;55.752;37.884;2023-03-11T07:11:38;98376.31;;;30.49;20.56
54816;BME280;40715;55.752;37.884;2023-03-11T07:14:05;98382.00;;;30.54;20.59
54816;BME280;40715;55.752;37.884;2023-03-11T07:16:32;98366.91;;;30.51;20.32
54816;BME280;40715;55.752;37.884;2023-03-11T07:19:00;98374.03;;;30.52;20.55
54816;BME280;40715;55.752;37.884;2023-03-11T07:21:30;98357.44;;;30.47;20.68
54816;BME280;40715;55.752;37.884;2023-03-11T07:24:00;98360.84;;;30.49;20.47
54816;BME280;40715;55.752;37.884;2023-03-11T07:26:29;98353.91;;;30.46;20.46
54816;BME280;40715;55.752;37.884;2023-03-11T07:28:56;98345.47;;;30.41;20.50
54816;BME280;40715;55.752;37.884;2023-03-11T07:31:26;98357.84;;;30.44;20.77
54816;BME280;40715;55.752;37.884;2023-03-11T07:33:55;98343.44;;;30.43;20.73
54816;BME280;40715;55.752;37.884;2023-03-11T07:36:24;98352.03;;;30.47;20.89
54816;BME280;40715;55.752;37.884;2023-03-11T07:38:57;98346.22;;;30.50;21.11
54816;BME280;40715;55.752;37.884;2023-03-11T07:41:26;98346.03;;;30.52;21.00
54816;BME280;40715;55.752;37.884;2023-03-11T07:43:54;98331.78;;;30.50;21.07
54816;BME280;40715;55.752;37.884;2023-03-11T07:46:25;98325.50;;;30.49;21.34
54816;BME280;40715;55.752;37.884;2023-03-11T07:48:53;98327.75;;;30.45;21.53
54816;BME280;40715;55.752;37.884;2023-03-11T07:51:23;98317.75;;;30.46;21.27
54816;BME280;40715;55.752;37.884;2023-03-11T07:53:51;98316.25;;;30.43;21.41
54816;BME280;40715;55.752;37.884;2023-03-11T07:56:19;98306.66;;;30.26;21.53
54816;BME280;40715;55.752;37.884;2023-03-11T07:58:47;98302.75;;;30.13;21.60
54816;BME280;40715;55.752;37.884;2023-03-11T08:01:16;98306.59;;;30.04;21.45
54816;BME280;40715;55.752;37.884;2023-03-11T08:03:45;98318.53;;;30.03;21.84
54816;BME280;40715;55.752;37.884;2023-03-11T08:06:15;98290.06;;;29.99;21.72
54816;BME280;40715;55.752;37.884;2023-03-11T08:08:43;98287.56;;;29.98;21.65
54816;BME280;40715;55.752;37.884;2023-03-11T08:11:12;98285.41;;;29.93;21.65
54816;BME280;40715;55.752;37.884;2023-03-11T08:13:41;98283.72;;;29.92;21.65
54816;BME280;40715;55.752;37.884;2023-03-11T08:16:10;98273.69;;;29.92;21.75
54816;BME280;40715;55.752;37.884;2023-03-11T08:18:38;98278.94;;;29.94;21.60
54816;BME280;40715;55.752;37.884;2023-03-11T08:21:07;98267.88;;;29.95;21.87
54816;BME280;40715;55.752;37.884;2023-03-11T08:23:35;98276.50;;;29.99;21.56
54816;BME280;40715;55.752;37.884;2023-03-11T08:26:12;98261.69;;;30.02;21.48
54816;BME280;40715;55.752;37.884;2023-03-11T08:28:46;98262.34;;;30.04;21.56
54816;BME280;40715;55.752;37.884;2023-03-11T08:31:19;98259.63;;;30.04;21.76
54816;BME280;40715;55.752;37.884;2023-03-11T08:33:49;98255.22;;;30.03;21.74
54816;BME280;40715;55.752;37.884;2023-03-11T08:36:17;98253.78;;;30.07;21.60
54816;BME280;40715;55.752;37.884;2023-03-11T08:38:44;98249.03;;;30.09;21.37
54816;BME280;40715;55.752;37.884;2023-03-11T08:41:11;98243.59;;;30.09;21.46
54816;BME280;40715;55.752;37.884;2023-03-11T08:43:38;98243.59;;;30.09;21.44
54816;BME280;40715;55.752;37.884;2023-03-11T08:46:06;98243.59;;;30.09;21.09
54816;BME280;40715;55.752;37.884;2023-03-11T08:48:36;98235.44;;;30.09;20.96
54816;BME280;40715;55.752;37.884;2023-03-11T08:51:10;98232.97;;;30.14;21.27
54816;BME280;40715;55.752;37.884;2023-03-11T08:53:38;98226.91;;;30.12;21.31
54816;BME280;40715;55.752;37.884;2023-03-11T08:56:05;98245.91;;;30.12;21.37
54816;BME280;40715;55.752;37.884;2023-03-11T08:58:33;98250.75;;;30.17;21.35
54816;BME280;40715;55.752;37.884;2023-03-11T09:01:00;98236.59;;;30.21;21.26
54816;BME280;40715;55.752;37.884;2023-03-11T09:03:32;98241.47;;;30.26;21.30
54816;BME280;40715;55.752;37.884;2023-03-11T09:06:04;98242.28;;;30.26;21.17
54816;BME280;40715;55.752;37.884;2023-03-11T09:08:31;98241.19;;;30.21;21.52
54816;BME280;40715;55.752;37.884;2023-03-11T09:10:59;98234.16;;;30.26;21.32
54816;BME280;40715;55.752;37.884;2023-03-11T09:13:26;98235.16;;;30.25;21.20
54816;BME280;40715;55.752;37.884;2023-03-11T09:15:54;98229.72;;;30.25;21.24
54816;BME280;40715;55.752;37.884;2023-03-11T09:18:21;98203.97;;;30.15;21.22
54816;BME280;40715;55.752;37.884;2023-03-11T09:20:52;98216.56;;;30.22;21.10
54816;BME280;40715;55.752;37.884;2023-03-11T09:23:24;98222.66;;;30.24;21.33
54816;BME280;40715;55.752;37.884;2023-03-11T09:25:51;98209.63;;;30.20;21.39
54816;BME280;40715;55.752;37.884;2023-03-11T09:28:19;98203.63;;;30.24;21.31
54816;BME280;40715;55.752;37.884;2023-03-11T09:30:46;98213.50;;;30.32;21.31
54816;BME280;40715;55.752;37.884;2023-03-11T09:33:13;98213.31;;;30.34;20.96
54816;BME280;40715;55.752;37.884;2023-03-11T09:35:40;98204.97;;;30.35;21.05
54816;BME280;40715;55.752;37.884;2023-03-11T09:38:07;98192.59;;;30.33;21.15
54816;BME280;40715;55.752;37.884;2023-03-11T09:41:05;98206.91;;;30.41;21.04
54816;BME280;40715;55.752;37.884;2023-03-11T09:43:50;98194.09;;;30.35;20.96
54816;BME280;40715;55.752;37.884;2023-03-11T09:49:03;98189.88;;;30.33;21.16
54816;BME280;40715;55.752;37.884;2023-03-11T09:51:45;98185.66;;;30.23;20.93
54816;BME280;40715;55.752;37.884;2023-03-11T09:54:16;98193.41;;;30.26;21.07
54816;BME280;40715;55.752;37.884;2023-03-11T09:56:44;98186.06;;;30.27;21.09
54816;BME280;40715;55.752;37.884;2023-03-11T09:59:18;98188.03;;;30.33;20.81
54816;BME280;40715;55.752;37.884;2023-03-11T10:01:48;98179.91;;;30.96;20.18
54816;BME280;40715;55.752;37.884;2023-03-11T10:04:27;98186.59;;;30.37;21.02
54816;BME280;40715;55.752;37.884;2023-03-11T10:06:58;98191.91;;;30.24;21.00
54816;BME280;40715;55.752;37.884;2023-03-11T10:09:36;98175.88;;;30.29;21.09
54816;BME280;40715;55.752;37.884;2023-03-11T10:28:09;98118.53;;;30.45;20.86
54816;BME280;40715;55.752;37.884;2023-03-11T10:31:06;98112.53;;;30.50;20.78
54816;BME280;40715;55.752;37.884;2023-03-11T10:33:51;98132.06;;;30.39;21.09
54816;BME280;40715;55.752;37.884;2023-03-11T10:36:33;98108.84;;;30.36;21.04
54816;BME280;40715;55.752;37.884;2023-03-11T10:39:02;98111.09;;;30.33;21.03
54816;BME280;40715;55.752;37.884;2023-03-11T10:44:18;98094.03;;;30.39;21.00
54816;BME280;40715;55.752;37.884;2023-03-11T10:46:50;98083.09;;;30.32;20.84
54816;BME280;40715;55.752;37.884;2023-03-11T10:49:18;98085.22;;;30.37;21.28
54816;BME280;40715;55.752;37.884;2023-03-11T10:51:48;98077.94;;;30.37;21.15
54816;BME280;40715;55.752;37.884;2023-03-11T10:54:27;98069.38;;;30.40;20.74
54816;BME280;40715;55.752;37.884;2023-03-11T10:57:00;98062.66;;;30.36;20.78
54816;BME280;40715;55.752;37.884;2023-03-11T11:00:02;98067.47;;;30.41;20.77
54816;BME280;40715;55.752;37.884;2023-03-11T11:02:32;98064.00;;;30.47;20.67
54816;BME280;40715;55.752;37.884;2023-03-11T11:07:51;98052.22;;;30.40;21.01
54816;BME280;40715;55.752;37.884;2023-03-11T11:10:28;98054.09;;;30.39;20.56
54816;BME280;40715;55.752;37.884;2023-03-11T11:13:16;98042.69;;;30.51;21.06
54816;BME280;40715;55.752;37.884;2023-03-11T11:15:56;98034.22;;;30.32;21.14
54816;BME280;40715;55.752;37.884;2023-03-11T11:18:45;98039.53;;;30.47;20.76
54816;BME280;40715;55.752;37.884;2023-03-11T11:21:27;98031.13;;;30.07;20.25
54816;BME280;40715;55.752;37.884;2023-03-11T11:24:12;98027.28;;;29.94;20.75
54816;BME280;40715;55.752;37.884;2023-03-11T11:26:41;98033.56;;;29.95;20.96
54816;BME280;40715;55.752;37.884;2023-03-11T11:31:45;98012.75;;;30.09;21.16
54816;BME280;40715;55.752;37.884;2023-03-11T11:36:53;97991.41;;;29.99;20.99
54816;BME280;40715;55.752;37.884;2023-03-11T11:39:25;98003.53;;;30.03;21.07
54816;BME280;40715;55.752;37.884;2023-03-11T11:41:54;97996.88;;;30.06;21.03
54816;BME280;40715;55.752;37.884;2023-03-11T11:44:31;98008.16;;;30.09;21.07
54816;BME280;40715;55.752;37.884;2023-03-11T11:47:56;98009.28;;;30.22;21.04
54816;BME280;40715;55.752;37.884;2023-03-11T11:50:00;98002.53;;;30.11;21.00
54816;BME280;40715;55.752;37.884;2023-03-11T11:52:35;98003.75;;;30.08;21.11
54816;BME280;40715;55.752;37.884;2023-03-11T11:55:18;98002.19;;;30.21;20.89
54816;BME280;40715;55.752;37.884;2023-03-11T11:57:46;97997.56;;;30.15;21.36
54816;BME280;40715;55.752;37.884;2023-03-11T12:00:29;97980.44;;;30.21;21.35
54816;BME280;40715;55.752;37.884;2023-03-11T12:03:06;97987.97;;;30.19;21.25
54816;BME280;40715;55.752;37.884;2023-03-11T12:05:44;97982.91;;;30.16;21.21
54816;BME280;40715;55.752;37.884;2023-03-11T12:08:21;97984.81;;;30.15;21.45
54816;BME280;40715;55.752;37.884;2023-03-11T12:11:56;97973.41;;;30.33;21.22
54816;BME280;40715;55.752;37.884;2023-03-11T12:27:53;97965.84;;;30.22;21.13
54816;BME280;40715;55.752;37.884;2023-03-11T12:30:33;97952.25;;;30.22;20.93
54816;BME280;40715;55.752;37.884;2023-03-11T12:33:15;97953.25;;;30.14;20.70
54816;BME280;40715;55.752;37.884;2023-03-11T12:35:53;97943.25;;;30.15;20.88
54816;BME280;40715;55.752;37.884;2023-03-11T12:38:38;97960.16;;;30.17;20.41
54816;BME280;40715;55.752;37.884;2023-03-11T12:41:25;97962.88;;;30.17;20.64
54816;BME280;40715;55.752;37.884;2023-03-11T12:44:02;97959.94;;;30.18;20.52
54816;BME280;40715;55.752;37.884;2023-03-11T12:49:26;97957.59;;;30.08;20.44
54816;BME280;40715;55.752;37.884;2023-03-11T12:54:43;97937.72;;;30.01;20.24
54816;BME280;40715;55.752;37.884;2023-03-11T13:05:28;97918.69;;;29.94;20.10
54816;BME280;40715;55.752;37.884;2023-03-11T13:08:08;97914.78;;;30.52;19.81
54816;BME280;40715;55.752;37.884;2023-03-11T13:16:34;97931.94;;;29.83;20.00
54816;BME280;40715;55.752;37.884;2023-03-11T13:18:45;97916.97;;;29.87;20.06
54816;BME280;40715;55.752;37.884;2023-03-11T13:27:05;97894.06;;;30.03;20.08
54816;BME280;40715;55.752;37.884;2023-03-11T13:40:37;97876.53;;;30.05;19.88
54816;BME280;40715;55.752;37.884;2023-03-11T13:43:10;97872.56;;;30.01;19.67
54816;BME280;40715;55.752;37.884;2023-03-11T13:45:40;97867.97;;;30.02;19.58
54816;BME280;40715;55.752;37.884;2023-03-11T13:50:48;97859.84;;;30.02;19.76
54816;BME280;40715;55.752;37.884;2023-03-11T13:53:21;97856.47;;;30.00;19.86
54816;BME280;40715;55.752;37.884;2023-03-11T13:55:51;97840.19;;;30.00;19.69
54816;BME280;40715;55.752;37.884;2023-03-11T13:58:24;97839.56;;;30.04;19.67
54816;BME280;40715;55.752;37.884;2023-03-11T14:00:54;97833.31;;;30.04;19.68
54816;BME280;40715;55.752;37.884;2023-03-11T14:03:24;97839.38;;;30.06;19.70
54816;BME280;40715;55.752;37.884;2023-03-11T14:06:01;97836.88;;;30.11;19.51
54816;BME280;40715;55.752;37.884;2023-03-11T14:08:31;97821.81;;;30.02;19.65
54816;BME280;40715;55.752;37.884;2023-03-11T14:11:00;97824.75;;;30.00;19.59
54816;BME280;40715;55.752;37.884;2023-03-11T14:13:53;97827.31;;;30.22;19.48
54816;BME280;40715;55.752;37.884;2023-03-11T14:19:12;97830.59;;;30.04;19.35
54816;BME280;40715;55.752;37.884;2023-03-11T14:21:43;97787.66;;;29.79;19.77
54816;BME280;40715;55.752;37.884;2023-03-11T14:24:19;97810.56;;;30.05;19.58
54816;BME280;40715;55.752;37.884;2023-03-11T14:26:52;97808.84;;;29.97;19.29
54816;BME280;40715;55.752;37.884;2023-03-11T14:29:39;97810.75;;;30.10;19.25
54816;BME280;40715;55.752;37.884;2023-03-11T14:32:31;97806.19;;;30.10;19.28
54816;BME280;40715;55.752;37.884;2023-03-11T14:34:59;97799.03;;;29.96;19.07
54816;BME280;40715;55.752;37.884;2023-03-11T14:39:56;97811.53;;;29.97;19.22
54816;BME280;40715;55.752;37.884;2023-03-11T14:42:41;97801.16;;;30.07;19.19
54816;BME280;40715;55.752;37.884;2023-03-11T14:45:16;97782.75;;;29.96;19.41
54816;BME280;40715;55.752;37.884;2023-03-11T14:48:28;97792.75;;;29.95;19.29
54816;BME280;40715;55.752;37.884;2023-03-11T14:50:34;97775.44;;;29.97;19.25
54816;BME280;40715;55.752;37.884;2023-03-11T14:53:12;97778.16;;;29.97;19.40
54816;BME280;40715;55.752;37.884;2023-03-11T14:58:42;97779.59;;;29.92;19.34
54816;BME280;40715;55.752;37.884;2023-03-11T15:01:20;97763.84;;;29.81;19.07
54816;BME280;40715;55.752;37.884;2023-03-11T15:04:14;97760.41;;;30.01;19.28
54816;BME280;40715;55.752;37.884;2023-03-11T15:06:49;97764.53;;;29.90;19.10
54816;BME280;40715;55.752;37.884;2023-03-11T15:09:22;97759.94;;;29.84;19.32
54816;BME280;40715;55.752;37.884;2023-03-11T15:11:52;97768.06;;;29.84;19.27
54816;BME280;40715;55.752;37.884;2023-03-11T15:14:31;97757.16;;;29.77;19.16